Liberty — WDC5845 — position and weather

sailwx.info

Track history (hours):
 
Tides and Currents Weather Stations Pressure Air Temp Water Temp Dewpoint Dewpoint Depression Visibility Wind Speed Wind Dir Waves Ship Positions

Liberty

Owner: Tidewater Barge Lines Inc., Vancouver, WA. More information available from US FCC via Universal Licensing System and Coast Guard Vessel Documentation Center.

Last reported at 2017-Oct-18 07:30 UTC. Time now 2017-Oct-18 07:57 UTC.
Position N 45°39' W 122°44'.

Length 34 m; draft 3 m.

Type: Towing. MMSI: 2142822.

Date/timePositionNaut miles runAvg speedWind from/ knotsBaromVisibWave heightAir tempDewpointWater temp
2017-Oct-18 07:30N 45°39' W 122°44'1 2.1
2017-Oct-18 07:01N 45°39' W 122°46'2 4.5
2017-Oct-18 06:31N 45°37' W 122°47'0 0.1
2017-Oct-18 05:51N 45°37' W 122°47'0 0.2
2017-Oct-18 05:30N 45°37' W 122°47'1 1.2
2017-Oct-18 05:01N 45°38' W 122°47'3 5.5
2017-Oct-18 04:30N 45°41' W 122°46'3 6.6
2017-Oct-18 04:01N 45°44' W 122°46'3 6.6
2017-Oct-18 03:30N 45°47' W 122°47'3 6.3
2017-Oct-18 03:00N 45°50' W 122°47'3 6.1
2017-Oct-18 02:31N 45°53' W 122°48'1 2.3
2017-Oct-18 02:00N 45°54' W 122°49'1 2.8
2017-Oct-18 01:31N 45°56' W 122°48'3 6.3
2017-Oct-18 01:00N 45°59' W 122°50'3 6.9
2017-Oct-18 00:31N 46°02' W 122°52'4 7.1
2017-Oct-18 00:00N 46°05' W 122°54'1 1.8
2017-Oct-17 23:31N 46°05' W 122°55'1 2.7
2017-Oct-17 23:01N 46°06' W 122°57'1 2.6
2017-Oct-17 22:30N 46°07' W 122°58'4 8.1
2017-Oct-17 22:00N 46°09' W 123°03'4 8.1
2017-Oct-17 21:31N 46°11' W 123°08'4 8.1
2017-Oct-17 21:00N 46°10' W 123°14'4 8.3
2017-Oct-17 20:31N 46°09' W 123°19'4 7.1
2017-Oct-17 19:59N 46°10' W 123°25'0 0.8
2017-Oct-17 19:28N 46°09' W 123°24'0 0.9
2017-Oct-17 18:56N 46°10' W 123°25'0 0.0
2017-Oct-17 18:30N 46°10' W 123°25'0 0.1
2017-Oct-17 18:00N 46°10' W 123°25'3 6.8
2017-Oct-17 17:30N 46°13' W 123°25'4 8.4
2017-Oct-17 17:01N 46°16' W 123°29'714.2
2017-Oct-17 16:30N 46°15' W 123°39'2 4.3
2017-Oct-17 16:01N 46°15' W 123°42'5 9.4
2017-Oct-17 15:30N 46°12' W 123°48'4 8.8
2017-Oct-17 15:01N 46°11' W 123°54'1 1.6
2017-Oct-17 14:29N 46°11' W 123°55'0 0.3
2017-Oct-17 13:59N 46°12' W 123°55'0 0.1
2017-Oct-17 13:30N 46°12' W 123°55'4 7.9
2017-Oct-17 13:00N 46°12' W 123°50'611.2
2017-Oct-17 12:30N 46°14' W 123°43'510.9
2017-Oct-17 12:00N 46°15' W 123°35'510.1
2017-Oct-17 11:30N 46°16' W 123°28'5 9.3
2017-Oct-17 11:00N 46°11' W 123°26'2 3.4
2017-Oct-17 10:24N 46°10' W 123°24'0 0.0
2017-Oct-17 10:00N 46°10' W 123°24'1 1.3
2017-Oct-17 09:30N 46°09' W 123°24'4 7.2
2017-Oct-17 09:00N 46°09' W 123°18'4 7.2
2017-Oct-17 08:30N 46°10' W 123°14'4 7.1
2017-Oct-17 08:00N 46°11' W 123°09'4 7.3
2017-Oct-17 07:30N 46°10' W 123°04'4 7.8
2017-Oct-17 07:00N 46°07' W 122°60'1 1.8
2017-Oct-17 06:27N 46°07' W 122°58'1 2.7
2017-Oct-17 06:00N 46°06' W 122°57'4 9.0
2017-Oct-17 05:30N 46°03' W 122°53'5 9.6
2017-Oct-17 05:00N 45°58' W 122°50'5 9.6
2017-Oct-17 04:30N 45°54' W 122°48'5 9.5
2017-Oct-17 04:00N 45°49' W 122°48'5 9.6
2017-Oct-17 03:30N 45°44' W 122°46'5 9.4
2017-Oct-17 03:00N 45°40' W 122°46'3 4.7
2017-Oct-17 02:24N 45°37' W 122°47'0 0.5
2017-Oct-17 01:59N 45°37' W 122°47'0 0.5
2017-Oct-17 01:28N 45°37' W 122°47'0 0.0
2017-Oct-17 00:59N 45°37' W 122°47'0 0.4
2017-Oct-17 00:29N 45°37' W 122°47'0 1.0
2017-Oct-17 00:01N 45°38' W 122°47'3 6.7
2017-Oct-16 23:31N 45°41' W 122°47'4 7.7
2017-Oct-16 23:00N 45°45' W 122°46'4 8.1
2017-Oct-16 22:30N 45°49' W 122°48'4 8.3
2017-Oct-16 22:01N 45°53' W 122°48'4 8.5
2017-Oct-16 21:31N 45°57' W 122°49'4 8.5
2017-Oct-16 21:00N 46°01' W 122°51'4 8.4
2017-Oct-16 20:31N 46°05' W 122°54'4 8.6
2017-Oct-16 20:00N 46°07' W 122°59'4 8.5
2017-Oct-16 19:31N 46°10' W 123°04'4 8.2
2017-Oct-16 19:00N 46°11' W 123°09'4 8.5
2017-Oct-16 18:30N 46°10' W 123°15'4 8.3
2017-Oct-16 18:01N 46°09' W 123°21'3 5.0
2017-Oct-16 17:26N 46°10' W 123°25'0 0.1
2017-Oct-16 16:59N 46°10' W 123°25'0 0.0
2017-Oct-16 16:29N 46°10' W 123°25'0 0.0
2017-Oct-16 15:59N 46°10' W 123°25'0 0.0
2017-Oct-16 15:29N 46°10' W 123°25'0 0.0
2017-Oct-16 14:59N 46°10' W 123°25'0 0.0
2017-Oct-16 14:29N 46°10' W 123°25'0 0.3
2017-Oct-16 13:29N 46°10' W 123°24'2 3.2
2017-Oct-16 13:01N 46°09' W 123°22'4 8.6
2017-Oct-16 12:31N 46°09' W 123°16'5 9.4
2017-Oct-16 12:00N 46°11' W 123°10'4 8.7
2017-Oct-16 11:31N 46°10' W 123°04'4 8.8
2017-Oct-16 11:01N 46°07' W 122°59'4 8.7
2017-Oct-16 10:30N 46°05' W 122°54'4 8.2
2017-Oct-16 10:00N 46°01' W 122°52'4 8.2
2017-Oct-16 09:30N 45°57' W 122°49'4 7.8
2017-Oct-16 09:00N 45°53' W 122°48'4 7.6
2017-Oct-16 08:30N 45°50' W 122°48'4 7.6
2017-Oct-16 08:00N 45°46' W 122°46'5 8.3
2017-Oct-16 07:22N 45°41' W 122°46'3 7.5
2017-Oct-16 07:00N 45°38' W 122°47'3 5.1
2017-Oct-16 06:30N 45°36' W 122°46'2 4.0
2017-Oct-16 05:55N 45°34' W 122°44'0 0.0
2017-Oct-16 05:28N 45°34' W 122°44'0 0.0
2017-Oct-16 04:55N 45°34' W 122°44'0 0.0
2017-Oct-16 04:28N 45°34' W 122°44'0 0.0
2017-Oct-16 03:58N 45°34' W 122°44'2 4.9
2017-Oct-16 03:31N 45°36' W 122°46'2 3.3
2017-Oct-16 02:57N 45°37' W 122°47'1 3.1
2017-Oct-16 02:30N 45°39' W 122°47'2 2.1
2017-Oct-16 01:46N 45°39' W 122°44'0 0.0
2017-Oct-16 01:28N 45°39' W 122°44'0 0.0
2017-Oct-16 00:58N 45°39' W 122°44'0 0.0
2017-Oct-16 00:25N 45°39' W 122°44'0 0.0
2017-Oct-15 23:52N 45°39' W 122°44'0 0.0
2017-Oct-15 23:28N 45°39' W 122°44'0 0.0
2017-Oct-15 22:58N 45°39' W 122°44'0 0.0
2017-Oct-15 22:28N 45°39' W 122°44'0 0.0
2017-Oct-15 21:58N 45°39' W 122°44'0 0.0
2017-Oct-15 21:28N 45°39' W 122°44'0 0.0
2017-Oct-15 20:58N 45°39' W 122°44'0 0.0
2017-Oct-15 20:28N 45°39' W 122°44'0 0.0
2017-Oct-15 19:58N 45°39' W 122°44'  
2017-Oct-13 15:34N 45°39' W 122°44'0 0.0
2017-Oct-13 15:25N 45°39' W 122°44'0 0.0
2017-Oct-11 20:19N 45°39' W 122°44'0 0.0
2017-Oct-11 19:55N 45°39' W 122°44'1 1.3
2017-Oct-11 19:30N 45°39' W 122°45'1 0.9
2017-Oct-11 18:53N 45°39' W 122°44'0 0.0
2017-Oct-11 18:26N 45°39' W 122°44'0 0.0
2017-Oct-11 17:59N 45°39' W 122°44'0 0.0
2017-Oct-11 17:26N 45°39' W 122°44'0 0.0
2017-Oct-11 16:56N 45°39' W 122°44'0 0.0
2017-Oct-10 23:56N 45°39' W 122°44'0 0.0
2017-Oct-10 23:26N 45°39' W 122°44'0 0.0
2017-Oct-10 22:59N 45°39' W 122°44'0 0.0
2017-Oct-10 22:29N 45°39' W 122°44'0 0.0
2017-Oct-10 22:00N 45°39' W 122°44'0 0.0
2017-Oct-10 21:29N 45°39' W 122°44'0 0.0
2017-Oct-10 20:53N 45°39' W 122°44'0 0.0
2017-Oct-10 20:29N 45°39' W 122°44'0 0.0
2017-Oct-10 19:56N 45°39' W 122°44'0 0.0
2017-Oct-10 19:23N 45°39' W 122°44'0 0.0
2017-Oct-10 18:59N 45°39' W 122°44'0 0.0
2017-Oct-10 18:29N 45°39' W 122°44'0 0.0
2017-Oct-10 17:56N 45°39' W 122°44'0 0.0
2017-Oct-10 17:29N 45°39' W 122°44'0 0.0
2017-Oct-10 16:59N 45°39' W 122°44'0 0.0
2017-Oct-10 16:29N 45°39' W 122°44'0 0.0
2017-Oct-10 15:59N 45°39' W 122°44'0 0.0
2017-Oct-10 15:21N 45°39' W 122°44'0 0.0
2017-Oct-10 14:56N 45°39' W 122°44'0 0.0
2017-Oct-10 13:41N 45°39' W 122°44'0 0.0
2017-Oct-10 13:29N 45°39' W 122°44'0 0.0
2017-Oct-10 12:14N 45°39' W 122°44'0 0.0
2017-Oct-10 11:56N 45°39' W 122°44'0 0.0
2017-Oct-10 11:20N 45°39' W 122°44'0 0.0
2017-Oct-10 10:59N 45°39' W 122°44'0 0.0
2017-Oct-10 10:29N 45°39' W 122°44'0 0.0
2017-Oct-10 09:59N 45°39' W 122°44'0 0.0
2017-Oct-10 09:14N 45°39' W 122°44'0 0.0
2017-Oct-10 08:50N 45°39' W 122°44'0 0.0
2017-Oct-10 08:26N 45°39' W 122°44'0 0.0
2017-Oct-10 07:56N 45°39' W 122°44'0 0.0
2017-Oct-10 07:26N 45°39' W 122°44'0 0.0
2017-Oct-10 06:59N 45°39' W 122°44'0 0.0
2017-Oct-10 06:26N 45°39' W 122°44'0 0.0
2017-Oct-10 05:53N 45°39' W 122°44'0 0.0
2017-Oct-10 05:26N 45°39' W 122°44'0 0.0
2017-Oct-10 04:59N 45°39' W 122°44'0 0.0
2017-Oct-10 04:29N 45°39' W 122°44'0 0.0
2017-Oct-10 03:50N 45°39' W 122°44'0 0.0
2017-Oct-10 02:53N 45°39' W 122°44'0 0.0
2017-Oct-10 02:29N 45°39' W 122°44'0 0.0
2017-Oct-10 01:53N 45°39' W 122°44'0 0.0
2017-Oct-10 01:02N 45°39' W 122°44'0 0.1
2017-Oct-10 00:59N 45°39' W 122°44'0 0.0
2017-Oct-10 00:29N 45°39' W 122°44'0 0.0
2017-Oct-09 23:56N 45°39' W 122°44'0 0.0
2017-Oct-09 23:26N 45°39' W 122°44'0 0.0
2017-Oct-09 22:59N 45°39' W 122°44'0 0.0
2017-Oct-09 22:29N 45°39' W 122°44'0 0.0
2017-Oct-09 21:59N 45°39' W 122°44'0 0.0
2017-Oct-09 21:26N 45°39' W 122°44'0 0.0
2017-Oct-09 20:56N 45°39' W 122°44'0 0.0
2017-Oct-09 20:26N 45°39' W 122°44'0 0.0
2017-Oct-09 19:56N 45°39' W 122°44'0 0.0
2017-Oct-09 19:26N 45°39' W 122°44'0 0.0
2017-Oct-09 18:56N 45°39' W 122°44'0 0.0
2017-Oct-09 18:26N 45°39' W 122°44'0 0.0
2017-Oct-09 17:59N 45°39' W 122°44'0 0.0
2017-Oct-09 17:11N 45°39' W 122°44'0 0.0
2017-Oct-09 16:44N 45°39' W 122°44'0 0.0
2017-Oct-09 16:26N 45°39' W 122°44'0 0.0
2017-Oct-09 15:53N 45°39' W 122°44'0 0.0
2017-Oct-09 15:23N 45°39' W 122°44'0 0.0
2017-Oct-09 14:59N 45°39' W 122°44'0 0.0
2017-Oct-09 14:26N 45°39' W 122°44'0 0.0
2017-Oct-09 13:56N 45°39' W 122°44'0 0.0
2017-Oct-09 13:26N 45°39' W 122°44'0 0.0
2017-Oct-09 12:50N 45°39' W 122°44'0 0.0
2017-Oct-09 12:29N 45°39' W 122°44'0 0.0
2017-Oct-09 11:59N 45°39' W 122°44'0 0.0
2017-Oct-09 11:23N 45°39' W 122°44'0 0.0
2017-Oct-09 10:56N 45°39' W 122°44'0 0.0
2017-Oct-09 10:11N 45°39' W 122°44'0 0.0
2017-Oct-09 09:59N 45°39' W 122°44'0 0.0
2017-Oct-09 08:59N 45°39' W 122°44'0 0.0
2017-Oct-09 08:29N 45°39' W 122°44'0 0.0
2017-Oct-09 07:59N 45°39' W 122°44'0 0.0
2017-Oct-09 07:29N 45°39' W 122°44'0 0.0
2017-Oct-09 06:59N 45°39' W 122°44'0 0.0
2017-Oct-09 06:29N 45°39' W 122°44'0 0.0
2017-Oct-09 05:59N 45°39' W 122°44'0 0.0
2017-Oct-09 05:29N 45°39' W 122°44'0 0.0
2017-Oct-09 04:59N 45°39' W 122°44'0 0.0
2017-Oct-09 04:26N 45°39' W 122°44'0 0.0
2017-Oct-09 03:26N 45°39' W 122°44'0 0.0
2017-Oct-09 02:59N 45°39' W 122°44'0 0.0
2017-Oct-09 02:29N 45°39' W 122°44'0 0.0
2017-Oct-09 01:59N 45°39' W 122°44'0 0.0
2017-Oct-09 01:26N 45°39' W 122°44'0 0.0
2017-Oct-09 00:44N 45°39' W 122°44'0 0.0
2017-Oct-09 00:29N 45°39' W 122°44'0 0.0
2017-Oct-08 23:59N 45°39' W 122°44'0 0.0
2017-Oct-08 23:29N 45°39' W 122°44'0 0.0
2017-Oct-08 22:59N 45°39' W 122°44'0 0.0
2017-Oct-08 22:14N 45°39' W 122°44'0 0.0
2017-Oct-08 21:56N 45°39' W 122°44'0 0.0
2017-Oct-08 21:26N 45°39' W 122°44'0 0.0
2017-Oct-08 20:59N 45°39' W 122°44'0 0.0
2017-Oct-08 20:20N 45°39' W 122°44'0 0.0
2017-Oct-08 19:59N 45°39' W 122°44'0 0.0
2017-Oct-08 19:23N 45°39' W 122°44'0 0.0
2017-Oct-08 18:59N 45°39' W 122°44'0 0.0
2017-Oct-08 18:29N 45°39' W 122°44'0 0.0
2017-Oct-08 17:44N 45°39' W 122°44'0 0.0
2017-Oct-08 17:26N 45°39' W 122°44'0 0.0
2017-Oct-08 16:56N 45°39' W 122°44'0 0.0
2017-Oct-08 16:29N 45°39' W 122°44'0 0.0
2017-Oct-08 15:56N 45°39' W 122°44'0 0.0
2017-Oct-08 15:29N 45°39' W 122°44'0 0.0
2017-Oct-08 14:23N 45°39' W 122°44'0 0.0
2017-Oct-08 13:59N 45°39' W 122°44'0 0.0
2017-Oct-08 13:29N 45°39' W 122°44'0 0.0
2017-Oct-08 12:56N 45°39' W 122°44'0 0.0
2017-Oct-08 12:29N 45°39' W 122°44'0 0.0
2017-Oct-08 11:59N 45°39' W 122°44'0 0.0
2017-Oct-08 11:29N 45°39' W 122°44'0 0.0
2017-Oct-08 10:59N 45°39' W 122°44'0 0.0
2017-Oct-08 10:29N 45°39' W 122°44'0 0.0
2017-Oct-08 09:35N 45°39' W 122°44'0 0.0
2017-Oct-08 09:26N 45°39' W 122°44'0 0.0
2017-Oct-08 08:59N 45°39' W 122°44'0 0.0
2017-Oct-08 08:14N 45°39' W 122°44'0 0.0
2017-Oct-08 07:50N 45°39' W 122°44'  
Track history (hours):
 
Tides and Currents Weather Stations Pressure Air Temp Water Temp Dewpoint Dewpoint Depression Visibility Wind Speed Wind Dir Waves Ship Positions

Liberty

Owner: Tidewater Barge Lines Inc., Vancouver, WA. More information available from US FCC via Universal Licensing System and Coast Guard Vessel Documentation Center.

Last reported at 2017-Oct-18 07:30 UTC. Time now 2017-Oct-18 07:57 UTC.
Position N 45°39' W 122°44'.

Length 34 m; draft 3 m.

Type: Towing. MMSI: 2142822.

Date/timePositionNaut miles runAvg speedWind from/ knotsBaromVisibWave heightAir tempDewpointWater temp
2017-Oct-18 07:30N 45°39' W 122°44'1 2.1
2017-Oct-18 07:01N 45°39' W 122°46'2 4.5
2017-Oct-18 06:31N 45°37' W 122°47'0 0.1
2017-Oct-18 05:51N 45°37' W 122°47'0 0.2
2017-Oct-18 05:30N 45°37' W 122°47'1 1.2
2017-Oct-18 05:01N 45°38' W 122°47'3 5.5
2017-Oct-18 04:30N 45°41' W 122°46'3 6.6
2017-Oct-18 04:01N 45°44' W 122°46'3 6.6
2017-Oct-18 03:30N 45°47' W 122°47'3 6.3
2017-Oct-18 03:00N 45°50' W 122°47'3 6.1
2017-Oct-18 02:31N 45°53' W 122°48'1 2.3
2017-Oct-18 02:00N 45°54' W 122°49'1 2.8
2017-Oct-18 01:31N 45°56' W 122°48'3 6.3
2017-Oct-18 01:00N 45°59' W 122°50'3 6.9
2017-Oct-18 00:31N 46°02' W 122°52'4 7.1
2017-Oct-18 00:00N 46°05' W 122°54'1 1.8
2017-Oct-17 23:31N 46°05' W 122°55'1 2.7
2017-Oct-17 23:01N 46°06' W 122°57'1 2.6
2017-Oct-17 22:30N 46°07' W 122°58'4 8.1
2017-Oct-17 22:00N 46°09' W 123°03'4 8.1
2017-Oct-17 21:31N 46°11' W 123°08'4 8.1
2017-Oct-17 21:00N 46°10' W 123°14'4 8.3
2017-Oct-17 20:31N 46°09' W 123°19'4 7.1
2017-Oct-17 19:59N 46°10' W 123°25'0 0.8
2017-Oct-17 19:28N 46°09' W 123°24'0 0.9
2017-Oct-17 18:56N 46°10' W 123°25'0 0.0
2017-Oct-17 18:30N 46°10' W 123°25'0 0.1
2017-Oct-17 18:00N 46°10' W 123°25'3 6.8
2017-Oct-17 17:30N 46°13' W 123°25'4 8.4
2017-Oct-17 17:01N 46°16' W 123°29'714.2
2017-Oct-17 16:30N 46°15' W 123°39'2 4.3
2017-Oct-17 16:01N 46°15' W 123°42'5 9.4
2017-Oct-17 15:30N 46°12' W 123°48'4 8.8
2017-Oct-17 15:01N 46°11' W 123°54'1 1.6
2017-Oct-17 14:29N 46°11' W 123°55'0 0.3
2017-Oct-17 13:59N 46°12' W 123°55'0 0.1
2017-Oct-17 13:30N 46°12' W 123°55'4 7.9
2017-Oct-17 13:00N 46°12' W 123°50'611.2
2017-Oct-17 12:30N 46°14' W 123°43'510.9
2017-Oct-17 12:00N 46°15' W 123°35'510.1
2017-Oct-17 11:30N 46°16' W 123°28'5 9.3
2017-Oct-17 11:00N 46°11' W 123°26'2 3.4
2017-Oct-17 10:24N 46°10' W 123°24'0 0.0
2017-Oct-17 10:00N 46°10' W 123°24'1 1.3
2017-Oct-17 09:30N 46°09' W 123°24'4 7.2
2017-Oct-17 09:00N 46°09' W 123°18'4 7.2
2017-Oct-17 08:30N 46°10' W 123°14'4 7.1
2017-Oct-17 08:00N 46°11' W 123°09'4 7.3
2017-Oct-17 07:30N 46°10' W 123°04'4 7.8
2017-Oct-17 07:00N 46°07' W 122°60'1 1.8
2017-Oct-17 06:27N 46°07' W 122°58'1 2.7
2017-Oct-17 06:00N 46°06' W 122°57'4 9.0
2017-Oct-17 05:30N 46°03' W 122°53'5 9.6
2017-Oct-17 05:00N 45°58' W 122°50'5 9.6
2017-Oct-17 04:30N 45°54' W 122°48'5 9.5
2017-Oct-17 04:00N 45°49' W 122°48'5 9.6
2017-Oct-17 03:30N 45°44' W 122°46'5 9.4
2017-Oct-17 03:00N 45°40' W 122°46'3 4.7
2017-Oct-17 02:24N 45°37' W 122°47'0 0.5
2017-Oct-17 01:59N 45°37' W 122°47'0 0.5
2017-Oct-17 01:28N 45°37' W 122°47'0 0.0
2017-Oct-17 00:59N 45°37' W 122°47'0 0.4
2017-Oct-17 00:29N 45°37' W 122°47'0 1.0
2017-Oct-17 00:01N 45°38' W 122°47'3 6.7
2017-Oct-16 23:31N 45°41' W 122°47'4 7.7
2017-Oct-16 23:00N 45°45' W 122°46'4 8.1
2017-Oct-16 22:30N 45°49' W 122°48'4 8.3
2017-Oct-16 22:01N 45°53' W 122°48'4 8.5
2017-Oct-16 21:31N 45°57' W 122°49'4 8.5
2017-Oct-16 21:00N 46°01' W 122°51'4 8.4
2017-Oct-16 20:31N 46°05' W 122°54'4 8.6
2017-Oct-16 20:00N 46°07' W 122°59'4 8.5
2017-Oct-16 19:31N 46°10' W 123°04'4 8.2
2017-Oct-16 19:00N 46°11' W 123°09'4 8.5
2017-Oct-16 18:30N 46°10' W 123°15'4 8.3
2017-Oct-16 18:01N 46°09' W 123°21'3 5.0
2017-Oct-16 17:26N 46°10' W 123°25'0 0.1
2017-Oct-16 16:59N 46°10' W 123°25'0 0.0
2017-Oct-16 16:29N 46°10' W 123°25'0 0.0
2017-Oct-16 15:59N 46°10' W 123°25'0 0.0
2017-Oct-16 15:29N 46°10' W 123°25'0 0.0
2017-Oct-16 14:59N 46°10' W 123°25'0 0.0
2017-Oct-16 14:29N 46°10' W 123°25'0 0.3
2017-Oct-16 13:29N 46°10' W 123°24'2 3.2
2017-Oct-16 13:01N 46°09' W 123°22'4 8.6
2017-Oct-16 12:31N 46°09' W 123°16'5 9.4
2017-Oct-16 12:00N 46°11' W 123°10'4 8.7
2017-Oct-16 11:31N 46°10' W 123°04'4 8.8
2017-Oct-16 11:01N 46°07' W 122°59'4 8.7
2017-Oct-16 10:30N 46°05' W 122°54'4 8.2
2017-Oct-16 10:00N 46°01' W 122°52'4 8.2
2017-Oct-16 09:30N 45°57' W 122°49'4 7.8
2017-Oct-16 09:00N 45°53' W 122°48'4 7.6
2017-Oct-16 08:30N 45°50' W 122°48'4 7.6
2017-Oct-16 08:00N 45°46' W 122°46'5 8.3
2017-Oct-16 07:22N 45°41' W 122°46'3 7.5
2017-Oct-16 07:00N 45°38' W 122°47'3 5.1
2017-Oct-16 06:30N 45°36' W 122°46'2 4.0
2017-Oct-16 05:55N 45°34' W 122°44'0 0.0
2017-Oct-16 05:28N 45°34' W 122°44'0 0.0
2017-Oct-16 04:55N 45°34' W 122°44'0 0.0
2017-Oct-16 04:28N 45°34' W 122°44'0 0.0
2017-Oct-16 03:58N 45°34' W 122°44'2 4.9
2017-Oct-16 03:31N 45°36' W 122°46'2 3.3
2017-Oct-16 02:57N 45°37' W 122°47'1 3.1
2017-Oct-16 02:30N 45°39' W 122°47'2 2.1
2017-Oct-16 01:46N 45°39' W 122°44'0 0.0
2017-Oct-16 01:28N 45°39' W 122°44'0 0.0
2017-Oct-16 00:58N 45°39' W 122°44'0 0.0
2017-Oct-16 00:25N 45°39' W 122°44'0 0.0
2017-Oct-15 23:52N 45°39' W 122°44'0 0.0
2017-Oct-15 23:28N 45°39' W 122°44'0 0.0
2017-Oct-15 22:58N 45°39' W 122°44'0 0.0
2017-Oct-15 22:28N 45°39' W 122°44'0 0.0
2017-Oct-15 21:58N 45°39' W 122°44'0 0.0
2017-Oct-15 21:28N 45°39' W 122°44'0 0.0
2017-Oct-15 20:58N 45°39' W 122°44'0 0.0
2017-Oct-15 20:28N 45°39' W 122°44'0 0.0
2017-Oct-15 19:58N 45°39' W 122°44'  
2017-Oct-13 15:34N 45°39' W 122°44'0 0.0
2017-Oct-13 15:25N 45°39' W 122°44'0 0.0
2017-Oct-11 20:19N 45°39' W 122°44'0 0.0
2017-Oct-11 19:55N 45°39' W 122°44'1 1.3
2017-Oct-11 19:30N 45°39' W 122°45'1 0.9
2017-Oct-11 18:53N 45°39' W 122°44'0 0.0
2017-Oct-11 18:26N 45°39' W 122°44'0 0.0
2017-Oct-11 17:59N 45°39' W 122°44'0 0.0
2017-Oct-11 17:26N 45°39' W 122°44'0 0.0
2017-Oct-11 16:56N 45°39' W 122°44'0 0.0
2017-Oct-10 23:56N 45°39' W 122°44'0 0.0
2017-Oct-10 23:26N 45°39' W 122°44'0 0.0
2017-Oct-10 22:59N 45°39' W 122°44'0 0.0
2017-Oct-10 22:29N 45°39' W 122°44'0 0.0
2017-Oct-10 22:00N 45°39' W 122°44'0 0.0
2017-Oct-10 21:29N 45°39' W 122°44'0 0.0
2017-Oct-10 20:53N 45°39' W 122°44'0 0.0
2017-Oct-10 20:29N 45°39' W 122°44'0 0.0
2017-Oct-10 19:56N 45°39' W 122°44'0 0.0
2017-Oct-10 19:23N 45°39' W 122°44'0 0.0
2017-Oct-10 18:59N 45°39' W 122°44'0 0.0
2017-Oct-10 18:29N 45°39' W 122°44'0 0.0
2017-Oct-10 17:56N 45°39' W 122°44'0 0.0
2017-Oct-10 17:29N 45°39' W 122°44'0 0.0
2017-Oct-10 16:59N 45°39' W 122°44'0 0.0
2017-Oct-10 16:29N 45°39' W 122°44'0 0.0
2017-Oct-10 15:59N 45°39' W 122°44'0 0.0
2017-Oct-10 15:21N 45°39' W 122°44'0 0.0
2017-Oct-10 14:56N 45°39' W 122°44'0 0.0
2017-Oct-10 13:41N 45°39' W 122°44'0 0.0
2017-Oct-10 13:29N 45°39' W 122°44'0 0.0
2017-Oct-10 12:14N 45°39' W 122°44'0 0.0
2017-Oct-10 11:56N 45°39' W 122°44'0 0.0
2017-Oct-10 11:20N 45°39' W 122°44'0 0.0
2017-Oct-10 10:59N 45°39' W 122°44'0 0.0
2017-Oct-10 10:29N 45°39' W 122°44'0 0.0
2017-Oct-10 09:59N 45°39' W 122°44'0 0.0
2017-Oct-10 09:14N 45°39' W 122°44'0 0.0
2017-Oct-10 08:50N 45°39' W 122°44'0 0.0
2017-Oct-10 08:26N 45°39' W 122°44'0 0.0
2017-Oct-10 07:56N 45°39' W 122°44'0 0.0
2017-Oct-10 07:26N 45°39' W 122°44'0 0.0
2017-Oct-10 06:59N 45°39' W 122°44'0 0.0
2017-Oct-10 06:26N 45°39' W 122°44'0 0.0
2017-Oct-10 05:53N 45°39' W 122°44'0 0.0
2017-Oct-10 05:26N 45°39' W 122°44'0 0.0
2017-Oct-10 04:59N 45°39' W 122°44'0 0.0
2017-Oct-10 04:29N 45°39' W 122°44'0 0.0
2017-Oct-10 03:50N 45°39' W 122°44'0 0.0
2017-Oct-10 02:53N 45°39' W 122°44'0 0.0
2017-Oct-10 02:29N 45°39' W 122°44'0 0.0
2017-Oct-10 01:53N 45°39' W 122°44'0 0.0
2017-Oct-10 01:02N 45°39' W 122°44'0 0.1
2017-Oct-10 00:59N 45°39' W 122°44'0 0.0
2017-Oct-10 00:29N 45°39' W 122°44'0 0.0
2017-Oct-09 23:56N 45°39' W 122°44'0 0.0
2017-Oct-09 23:26N 45°39' W 122°44'0 0.0
2017-Oct-09 22:59N 45°39' W 122°44'0 0.0
2017-Oct-09 22:29N 45°39' W 122°44'0 0.0
2017-Oct-09 21:59N 45°39' W 122°44'0 0.0
2017-Oct-09 21:26N 45°39' W 122°44'0 0.0
2017-Oct-09 20:56N 45°39' W 122°44'0 0.0
2017-Oct-09 20:26N 45°39' W 122°44'0 0.0
2017-Oct-09 19:56N 45°39' W 122°44'0 0.0
2017-Oct-09 19:26N 45°39' W 122°44'0 0.0
2017-Oct-09 18:56N 45°39' W 122°44'0 0.0
2017-Oct-09 18:26N 45°39' W 122°44'0 0.0
2017-Oct-09 17:59N 45°39' W 122°44'0 0.0
2017-Oct-09 17:11N 45°39' W 122°44'0 0.0
2017-Oct-09 16:44N 45°39' W 122°44'0 0.0
2017-Oct-09 16:26N 45°39' W 122°44'0 0.0
2017-Oct-09 15:53N 45°39' W 122°44'0 0.0
2017-Oct-09 15:23N 45°39' W 122°44'0 0.0
2017-Oct-09 14:59N 45°39' W 122°44'0 0.0
2017-Oct-09 14:26N 45°39' W 122°44'0 0.0
2017-Oct-09 13:56N 45°39' W 122°44'0 0.0
2017-Oct-09 13:26N 45°39' W 122°44'0 0.0
2017-Oct-09 12:50N 45°39' W 122°44'0 0.0
2017-Oct-09 12:29N 45°39' W 122°44'0 0.0
2017-Oct-09 11:59N 45°39' W 122°44'0 0.0
2017-Oct-09 11:23N 45°39' W 122°44'0 0.0
2017-Oct-09 10:56N 45°39' W 122°44'0 0.0
2017-Oct-09 10:11N 45°39' W 122°44'0 0.0
2017-Oct-09 09:59N 45°39' W 122°44'0 0.0
2017-Oct-09 08:59N 45°39' W 122°44'0 0.0
2017-Oct-09 08:29N 45°39' W 122°44'0 0.0
2017-Oct-09 07:59N 45°39' W 122°44'0 0.0
2017-Oct-09 07:29N 45°39' W 122°44'0 0.0
2017-Oct-09 06:59N 45°39' W 122°44'0 0.0
2017-Oct-09 06:29N 45°39' W 122°44'0 0.0
2017-Oct-09 05:59N 45°39' W 122°44'0 0.0
2017-Oct-09 05:29N 45°39' W 122°44'0 0.0
2017-Oct-09 04:59N 45°39' W 122°44'0 0.0
2017-Oct-09 04:26N 45°39' W 122°44'0 0.0
2017-Oct-09 03:26N 45°39' W 122°44'0 0.0
2017-Oct-09 02:59N 45°39' W 122°44'0 0.0
2017-Oct-09 02:29N 45°39' W 122°44'0 0.0
2017-Oct-09 01:59N 45°39' W 122°44'0 0.0
2017-Oct-09 01:26N 45°39' W 122°44'0 0.0
2017-Oct-09 00:44N 45°39' W 122°44'0 0.0
2017-Oct-09 00:29N 45°39' W 122°44'0 0.0
2017-Oct-08 23:59N 45°39' W 122°44'0 0.0
2017-Oct-08 23:29N 45°39' W 122°44'0 0.0
2017-Oct-08 22:59N 45°39' W 122°44'0 0.0
2017-Oct-08 22:14N 45°39' W 122°44'0 0.0
2017-Oct-08 21:56N 45°39' W 122°44'0 0.0
2017-Oct-08 21:26N 45°39' W 122°44'0 0.0
2017-Oct-08 20:59N 45°39' W 122°44'0 0.0
2017-Oct-08 20:20N 45°39' W 122°44'0 0.0
2017-Oct-08 19:59N 45°39' W 122°44'0 0.0
2017-Oct-08 19:23N 45°39' W 122°44'0 0.0
2017-Oct-08 18:59N 45°39' W 122°44'0 0.0
2017-Oct-08 18:29N 45°39' W 122°44'0 0.0
2017-Oct-08 17:44N 45°39' W 122°44'0 0.0
2017-Oct-08 17:26N 45°39' W 122°44'0 0.0
2017-Oct-08 16:56N 45°39' W 122°44'0 0.0
2017-Oct-08 16:29N 45°39' W 122°44'0 0.0
2017-Oct-08 15:56N 45°39' W 122°44'0 0.0
2017-Oct-08 15:29N 45°39' W 122°44'0 0.0
2017-Oct-08 14:23N 45°39' W 122°44'0 0.0
2017-Oct-08 13:59N 45°39' W 122°44'0 0.0
2017-Oct-08 13:29N 45°39' W 122°44'0 0.0
2017-Oct-08 12:56N 45°39' W 122°44'0 0.0
2017-Oct-08 12:29N 45°39' W 122°44'0 0.0
2017-Oct-08 11:59N 45°39' W 122°44'0 0.0
2017-Oct-08 11:29N 45°39' W 122°44'0 0.0
2017-Oct-08 10:59N 45°39' W 122°44'0 0.0
2017-Oct-08 10:29N 45°39' W 122°44'0 0.0
2017-Oct-08 09:35N 45°39' W 122°44'0 0.0
2017-Oct-08 09:26N 45°39' W 122°44'0 0.0
2017-Oct-08 08:59N 45°39' W 122°44'0 0.0
2017-Oct-08 08:14N 45°39' W 122°44'0 0.0
2017-Oct-08 07:50N 45°39' W 122°44'  

Dump ship's entire track history